Time;durP1;ratioP1;P1;durP2;ratioP2;P2;SDS_P1;SDS_P2;PMS_P1;PMS_P2;Temp;Humidity;BMP_temperature;BMP_pressure;BME280_temperature;BME280_humidity;BME280_pressure;Samples;Min_cycle;Max_cycle;Signal;HPM_P1;HPM_P2
2022/06/07 00:01:36;;;;;;;7.82;3.58;;;12.90;99.90;;;;;;4949165;28;20059;-78
2022/06/07 00:04:03;;;;;;;7.78;3.50;;;12.90;99.90;;;;;;4949724;28;20128;-78
2022/06/07 00:06:30;;;;;;;10.57;3.75;;;12.90;99.90;;;;;;4934164;28;20039;-78
2022/06/07 00:08:56;;;;;;;8.00;3.63;;;12.90;99.90;;;;;;4919238;28;20057;-78
2022/06/07 00:11:22;;;;;;;8.80;3.50;;;12.90;99.90;;;;;;4931413;28;20042;-79
2022/06/07 00:13:48;;;;;;;8.07;3.38;;;12.90;99.90;;;;;;4948086;28;20049;-79
2022/06/07 00:16:16;;;;;;;10.77;3.45;;;12.90;99.90;;;;;;4958090;28;20050;-78
2022/06/07 00:18:42;;;;;;;8.00;3.60;;;12.90;99.90;;;;;;4960077;28;20137;-78
2022/06/07 00:21:08;;;;;;;9.15;4.20;;;12.90;99.90;;;;;;4947529;28;20141;-78
2022/06/07 00:23:34;;;;;;;13.30;3.58;;;12.90;99.90;;;;;;4932688;28;20046;-77
2022/06/07 00:26:01;;;;;;;10.45;3.72;;;12.90;99.90;;;;;;4949974;28;20074;-78
2022/06/07 00:28:28;;;;;;;14.82;4.20;;;12.90;99.90;;;;;;4957888;28;20058;-78
2022/06/07 00:30:54;;;;;;;8.82;3.95;;;12.90;99.90;;;;;;4937342;28;20416;-78
2022/06/07 00:33:21;;;;;;;12.57;4.07;;;12.90;99.90;;;;;;4948512;28;20046;-78
2022/06/07 00:35:47;;;;;;;7.85;3.90;;;12.90;99.90;;;;;;4944257;28;20043;-78
2022/06/07 00:38:13;;;;;;;8.93;3.63;;;12.90;99.90;;;;;;4928856;28;20114;-77
2022/06/07 00:40:40;;;;;;;8.35;3.80;;;12.90;99.90;;;;;;4977501;28;20087;-79
2022/06/07 00:43:05;;;;;;;12.23;4.20;;;12.90;99.90;;;;;;4959384;28;20089;-78
2022/06/07 00:45:32;;;;;;;14.52;4.47;;;12.90;99.90;;;;;;4977709;28;20466;-78
2022/06/07 00:47:57;;;;;;;9.23;3.67;;;13.00;99.90;;;;;;4954963;28;20043;-78
2022/06/07 00:50:29;;;;;;;9.25;3.40;;;12.90;99.90;;;;;;4921824;28;20049;-78
2022/06/07 00:52:56;;;;;;;9.02;3.90;;;12.90;99.90;;;;;;4946299;28;20111;-78
2022/06/07 00:55:21;;;;;;;11.82;4.43;;;12.90;99.90;;;;;;4931568;28;20489;-77
2022/06/07 00:57:48;;;;;;;8.95;4.00;;;12.90;99.90;;;;;;4979842;28;20063;-78
2022/06/07 01:00:16;;;;;;;9.30;3.75;;;13.00;99.90;;;;;;4950702;28;20241;-78
2022/06/07 01:02:42;;;;;;;11.68;4.57;;;13.00;99.90;;;;;;4951302;28;20047;-78
2022/06/07 01:05:08;;;;;;;11.15;4.15;;;13.00;99.90;;;;;;4981250;28;20042;-78
2022/06/07 01:13:02;;;;;;;10.70;4.10;;;12.90;99.90;;;;;;4961889;28;20050;-79
2022/06/07 01:15:28;;;;;;;8.10;3.20;;;13.00;99.90;;;;;;4966444;28;20046;-79
2022/06/07 01:17:54;;;;;;;7.75;3.53;;;12.90;99.90;;;;;;4961464;28;20074;-78
2022/06/07 01:20:19;;;;;;;12.70;4.00;;;12.80;99.90;;;;;;4968832;28;20073;-78
2022/06/07 01:22:45;;;;;;;7.95;3.70;;;12.80;99.90;;;;;;4982701;28;20053;-78
2022/06/07 01:25:11;;;;;;;10.02;4.47;;;12.80;99.90;;;;;;4981605;28;20491;-77
2022/06/07 01:27:37;;;;;;;9.57;4.35;;;12.80;99.90;;;;;;4980773;28;20086;-76
2022/06/07 01:30:05;;;;;;;9.02;3.90;;;12.80;99.90;;;;;;4967221;28;20063;-78
2022/06/07 01:32:31;;;;;;;11.73;4.15;;;12.90;99.90;;;;;;4966639;28;20050;-78
2022/06/07 01:34:56;;;;;;;10.50;4.00;;;12.90;99.90;;;;;;4979786;28;20048;-80
2022/06/07 01:37:22;;;;;;;12.10;3.90;;;12.90;99.90;;;;;;4964473;28;20807;-78
2022/06/07 01:42:33;;;;;;;8.10;3.28;;;12.80;99.90;;;;;;4965013;28;20046;-78
2022/06/07 01:44:58;;;;;;;5.63;3.00;;;12.70;99.90;;;;;;4967427;28;20209;-77
2022/06/07 01:47:27;;;;;;;8.80;3.60;;;12.60;99.90;;;;;;4965733;28;20171;-77
2022/06/07 01:49:53;;;;;;;11.07;3.67;;;12.60;99.90;;;;;;4965660;28;20046;-77
2022/06/07 01:52:22;;;;;;;9.95;3.70;;;12.60;99.90;;;;;;4942694;28;20058;-78
2022/06/07 01:54:48;;;;;;;8.70;3.58;;;12.50;99.90;;;;;;4967743;28;20060;-78
2022/06/07 01:57:14;;;;;;;12.00;3.58;;;12.50;99.90;;;;;;4949415;28;20050;-78
2022/06/07 01:59:40;;;;;;;13.70;3.50;;;12.50;99.90;;;;;;4965420;28;20061;-78
2022/06/07 02:02:07;;;;;;;11.85;3.85;;;12.40;99.90;;;;;;4955398;28;20479;-78
2022/06/07 02:04:38;;;;;;;7.93;3.83;;;12.40;99.90;;;;;;4982584;28;20039;-77
2022/06/07 02:07:05;;;;;;;11.30;4.00;;;12.40;99.90;;;;;;4963325;28;20050;-76
2022/06/07 02:09:31;;;;;;;10.25;3.75;;;12.30;99.90;;;;;;4957681;28;20047;-77
2022/06/07 02:11:58;;;;;;;9.40;3.60;;;12.40;99.90;;;;;;4951261;28;20038;-76
2022/06/07 02:14:23;;;;;;;13.70;4.40;;;12.30;99.90;;;;;;4965528;28;20400;-77
2022/06/07 02:16:49;;;;;;;12.57;4.18;;;12.30;99.90;;;;;;4980500;28;20105;-76
2022/06/07 02:19:15;;;;;;;9.63;3.70;;;12.40;99.90;;;;;;4964127;28;20066;-76
2022/06/07 02:21:41;;;;;;;10.82;3.55;;;12.40;99.90;;;;;;4967857;28;20046;-77
2022/06/07 02:24:07;;;;;;;9.57;3.55;;;12.40;99.90;;;;;;4985028;28;20078;-77
2022/06/07 02:26:36;;;;;;;13.40;3.70;;;12.30;99.90;;;;;;4954429;28;20074;-77
2022/06/07 02:29:13;;;;;;;11.38;3.97;;;12.40;99.90;;;;;;4968073;28;20046;-77
2022/06/07 02:31:43;;;;;;;10.25;3.90;;;12.40;99.90;;;;;;4968186;28;20054;-77
2022/06/07 02:34:11;;;;;;;8.77;3.65;;;12.40;99.90;;;;;;4953683;28;20050;-77
2022/06/07 02:36:37;;;;;;;9.52;3.38;;;12.40;99.90;;;;;;4969128;28;20062;-78
2022/06/07 02:39:04;;;;;;;10.60;3.47;;;12.30;99.90;;;;;;4938746;28;20057;-77
2022/06/07 02:41:32;;;;;;;10.45;3.10;;;12.30;99.90;;;;;;4967811;28;20129;-76
2022/06/07 02:43:58;;;;;;;12.50;3.63;;;11.60;99.90;;;;;;4965474;28;20203;-77
2022/06/07 02:46:24;;;;;;;12.85;3.33;;;12.20;99.90;;;;;;4970340;28;20495;-76
2022/06/07 02:48:50;;;;;;;12.82;3.88;;;12.20;99.90;;;;;;4971472;28;20073;-77
2022/06/07 02:51:16;;;;;;;12.00;4.13;;;12.20;99.90;;;;;;4972510;28;20045;-77
2022/06/07 02:53:42;;;;;;;13.80;4.18;;;12.20;99.90;;;;;;4983426;28;20057;-78
2022/06/07 02:56:07;;;;;;;9.88;3.65;;;12.20;99.90;;;;;;4950551;28;20054;-77
2022/06/07 02:58:33;;;;;;;10.10;3.65;;;12.10;99.90;;;;;;4965231;28;20173;-77
2022/06/07 03:00:59;;;;;;;17.88;4.15;;;12.10;99.90;;;;;;4966633;28;20054;-78
2022/06/07 03:03:26;;;;;;;9.40;3.35;;;12.00;99.90;;;;;;4967295;28;20197;-78
2022/06/07 03:05:52;;;;;;;8.30;3.30;;;12.00;99.90;;;;;;4966489;28;20117;-77
2022/06/07 03:08:18;;;;;;;12.25;3.70;;;12.00;99.90;;;;;;4952158;28;20046;-78
2022/06/07 03:10:48;;;;;;;11.18;3.17;;;12.00;99.90;;;;;;4981798;28;20496;-77
2022/06/07 03:13:15;;;;;;;11.57;4.10;;;12.00;99.90;;;;;;4968385;28;20042;-77
2022/06/07 03:15:41;;;;;;;14.35;4.85;;;12.00;99.90;;;;;;4968158;28;20069;-77
2022/06/07 03:18:08;;;;;;;12.32;4.40;;;12.00;99.90;;;;;;4947972;28;20223;-77
2022/06/07 03:20:34;;;;;;;12.10;4.80;;;12.00;99.90;;;;;;4966412;28;20046;-77
2022/06/07 03:23:00;;;;;;;11.63;4.60;;;12.00;99.90;;;;;;4965533;28;20413;-77
2022/06/07 03:25:26;;;;;;;10.20;4.53;;;12.00;99.90;;;;;;4942335;28;20050;-78
2022/06/07 03:27:52;;;;;;;12.15;4.70;;;12.00;99.90;;;;;;4951444;28;20129;-77
2022/06/07 03:30:18;;;;;;;17.90;4.85;;;12.00;99.90;;;;;;4966785;28;20110;-77
2022/06/07 03:32:45;;;;;;;13.80;4.38;;;12.00;99.90;;;;;;4981946;28;20062;-78
2022/06/07 03:35:12;;;;;;;13.38;4.18;;;12.00;99.90;;;;;;4983773;28;20081;-77
2022/06/07 03:37:38;;;;;;;9.80;3.83;;;12.10;99.90;;;;;;4952956;28;20047;-77
2022/06/07 03:40:06;;;;;;;16.58;4.55;;;12.00;99.90;;;;;;4962027;28;20074;-77
2022/06/07 03:42:32;;;;;;;10.07;3.65;;;12.10;99.90;;;;;;4984357;28;20050;-78
2022/06/07 03:44:58;;;;;;;9.48;3.83;;;12.10;99.90;;;;;;4957285;28;20056;-78
2022/06/07 03:47:24;;;;;;;8.23;3.88;;;12.10;99.90;;;;;;4963770;28;20129;-78
2022/06/07 03:49:50;;;;;;;10.75;3.40;;;12.10;99.90;;;;;;4966451;28;20035;-77
2022/06/07 03:52:16;;;;;;;8.50;3.15;;;12.10;99.90;;;;;;4982508;28;20136;-77
2022/06/07 03:54:42;;;;;;;5.03;2.65;;;12.10;99.90;;;;;;4984014;28;20057;-78
2022/06/07 03:57:08;;;;;;;7.53;2.55;;;12.10;99.90;;;;;;4983283;28;20118;-77
2022/06/07 03:59:34;;;;;;;4.50;2.15;;;12.10;99.90;;;;;;4968515;28;20385;-77
2022/06/07 04:02:00;;;;;;;7.25;2.63;;;12.10;99.90;;;;;;4980608;28;20065;-77
2022/06/07 04:04:26;;;;;;;8.93;2.92;;;12.10;99.90;;;;;;4969228;28;20050;-77
2022/06/07 04:09:40;;;;;;;9.93;2.78;;;12.10;99.90;;;;;;4964811;28;20050;-77
2022/06/07 04:12:12;;;;;;;8.82;3.13;;;12.00;99.90;;;;;;4981640;28;20039;-78
2022/06/07 04:14:39;;;;;;;12.65;3.63;;;12.00;99.90;;;;;;4968654;28;20090;-77
2022/06/07 04:17:05;;;;;;;8.75;3.22;;;12.00;99.90;;;;;;4964913;28;20115;-78
2022/06/07 04:19:33;;;;;;;6.63;3.25;;;12.00;99.90;;;;;;4962700;28;20559;-78
2022/06/07 04:21:59;;;;;;;9.13;3.40;;;12.00;99.90;;;;;;4948433;28;20042;-78
2022/06/07 04:24:24;;;;;;;8.75;3.42;;;12.00;99.90;;;;;;4979989;28;20054;-77
2022/06/07 04:26:50;;;;;;;10.38;3.88;;;12.00;99.90;;;;;;4941000;28;20050;-79
2022/06/07 04:29:16;;;;;;;6.22;2.88;;;12.10;99.90;;;;;;4935822;28;20081;-77
2022/06/07 04:31:41;;;;;;;5.88;2.30;;;12.00;99.90;;;;;;4965714;28;20054;-77
2022/06/07 04:34:07;;;;;;;11.05;2.65;;;11.90;99.90;;;;;;4941458;28;20077;-77
2022/06/07 04:36:33;;;;;;;8.30;1.73;;;11.80;99.90;;;;;;4947423;28;20476;-77
2022/06/07 04:39:01;;;;;;;5.65;1.85;;;11.70;99.90;;;;;;4981088;28;20054;-77
2022/06/07 04:41:26;;;;;;;5.43;1.80;;;11.60;99.90;;;;;;4963356;28;20073;-77
2022/06/07 04:43:54;;;;;;;6.57;1.58;;;11.60;99.90;;;;;;4947913;28;20046;-77
2022/06/07 04:46:20;;;;;;;6.43;1.73;;;11.50;99.90;;;;;;4962708;28;20392;-77
2022/06/07 04:48:47;;;;;;;6.95;1.90;;;11.60;99.90;;;;;;4965623;28;20329;-78
2022/06/07 04:51:34;;;;;;;7.70;1.90;;;11.60;99.90;;;;;;4961665;28;20046;-78
2022/06/07 04:54:01;;;;;;;7.82;1.85;;;11.60;99.90;;;;;;4949569;28;20074;-77
2022/06/07 04:56:33;;;;;;;6.97;1.52;;;11.60;99.90;;;;;;4946099;28;20146;-77
2022/06/07 04:59:00;;;;;;;9.48;1.90;;;11.60;99.90;;;;;;4965592;28;20054;-78
2022/06/07 05:01:35;;;;;;;9.52;2.03;;;11.60;99.90;;;;;;4961662;28;20050;-78
2022/06/07 05:04:01;;;;;;;6.82;1.90;;;11.60;99.90;;;;;;4965234;28;20046;-77
2022/06/07 05:06:36;;;;;;;5.45;1.80;;;11.60;99.90;;;;;;4950707;28;20050;-77
2022/06/07 05:09:09;;;;;;;8.25;1.98;;;11.70;99.90;;;;;;4964744;28;20046;-77
2022/06/07 05:11:35;;;;;;;6.20;2.10;;;11.70;99.90;;;;;;4982147;28;20038;-76
2022/06/07 05:14:03;;;;;;;6.35;2.40;;;11.80;99.90;;;;;;4959034;28;20101;-77
2022/06/07 05:16:31;;;;;;;10.32;2.60;;;11.80;99.90;;;;;;4962955;28;20483;-77
2022/06/07 05:18:57;;;;;;;8.00;2.10;;;11.80;99.90;;;;;;4981541;28;20050;-77
2022/06/07 05:21:25;;;;;;;6.32;2.08;;;11.80;99.90;;;;;;4980619;28;20226;-78
2022/06/07 05:23:52;;;;;;;10.18;2.08;;;11.90;99.90;;;;;;4961019;28;20054;-78
2022/06/07 05:26:27;;;;;;;12.10;2.30;;;11.90;99.90;;;;;;4946674;28;20050;-78
2022/06/07 05:28:54;;;;;;;11.13;2.67;;;11.80;99.90;;;;;;4978174;28;20057;-77
2022/06/07 05:31:20;;;;;;;15.02;2.80;;;11.80;99.90;;;;;;4955863;28;20042;-78
2022/06/07 05:33:45;;;;;;;12.38;3.28;;;11.90;99.90;;;;;;4981947;28;21436;-77
2022/06/07 05:36:12;;;;;;;17.35;2.47;;;12.00;99.90;;;;;;4967556;28;20069;-76
2022/06/07 05:38:37;;;;;;;12.77;2.63;;;12.00;99.90;;;;;;4949493;28;20110;-76
2022/06/07 05:41:03;;;;;;;12.10;3.28;;;12.10;99.90;;;;;;4982152;28;20047;-77
2022/06/07 05:43:29;;;;;;;13.73;3.13;;;12.20;99.90;;;;;;4963695;28;20058;-76
2022/06/07 05:45:56;;;;;;;9.45;2.60;;;12.20;99.90;;;;;;4948242;28;20043;-78
2022/06/07 05:48:23;;;;;;;13.70;2.50;;;12.20;99.90;;;;;;4982376;28;20050;-77
2022/06/07 05:50:52;;;;;;;11.88;3.17;;;12.30;99.90;;;;;;4964362;28;20049;-77
2022/06/07 05:53:19;;;;;;;12.25;2.58;;;12.30;99.90;;;;;;4944498;28;20096;-76
2022/06/07 05:55:45;;;;;;;11.65;2.67;;;12.30;99.90;;;;;;4947292;28;20539;-76
2022/06/07 05:58:11;;;;;;;9.05;1.90;;;12.30;99.90;;;;;;4939465;28;20257;-77
2022/06/07 06:00:38;;;;;;;10.07;2.50;;;12.40;99.90;;;;;;4962684;28;20060;-77
2022/06/07 06:03:05;;;;;;;8.43;2.13;;;12.40;99.90;;;;;;4948500;28;20057;-77
2022/06/07 06:05:33;;;;;;;10.32;2.65;;;12.40;99.90;;;;;;4961079;28;20152;-77
2022/06/07 06:10:44;;;;;;;11.43;2.75;;;12.50;99.90;;;;;;4965083;28;20515;-77
2022/06/07 06:13:09;;;;;;;7.80;2.15;;;12.50;99.90;;;;;;4966717;28;20185;-76
2022/06/07 06:15:36;;;;;;;9.32;2.35;;;12.60;99.90;;;;;;4935774;28;20047;-78
2022/06/07 06:18:02;;;;;;;13.05;2.35;;;12.60;99.90;;;;;;4962644;28;20046;-75
2022/06/07 06:20:28;;;;;;;10.43;2.50;;;12.60;99.90;;;;;;4976282;28;20057;-77
2022/06/07 06:22:54;;;;;;;11.02;2.40;;;12.70;99.90;;;;;;4977953;28;20056;-78
2022/06/07 06:25:20;;;;;;;9.82;2.10;;;12.80;99.90;;;;;;4947554;28;20053;-78
2022/06/07 06:27:46;;;;;;;12.60;2.35;;;12.80;99.90;;;;;;4977409;28;20550;-77
2022/06/07 06:30:12;;;;;;;11.18;2.22;;;12.80;99.90;;;;;;4947225;28;20583;-78
2022/06/07 06:32:37;;;;;;;7.82;1.63;;;12.80;99.90;;;;;;4949788;28;20053;-78
2022/06/07 06:35:04;;;;;;;9.20;2.33;;;12.90;99.90;;;;;;4961075;28;20042;-76
2022/06/07 06:37:31;;;;;;;12.70;2.17;;;12.90;99.90;;;;;;4964157;28;20082;-77
2022/06/07 06:39:56;;;;;;;13.15;2.58;;;13.00;99.90;;;;;;4973538;28;20050;-78
2022/06/07 06:42:22;;;;;;;11.85;2.33;;;13.00;99.90;;;;;;4949348;28;20113;-77
2022/06/07 06:44:48;;;;;;;10.63;2.75;;;13.00;99.90;;;;;;4963900;28;20507;-77
2022/06/07 06:47:14;;;;;;;9.88;2.33;;;13.00;99.90;;;;;;4959244;28;20050;-78
2022/06/07 06:49:41;;;;;;;7.80;2.10;;;12.90;99.90;;;;;;4976755;28;20050;-78
2022/06/07 06:52:10;;;;;;;12.90;2.35;;;12.90;99.90;;;;;;4961995;28;20051;-77
2022/06/07 06:54:38;;;;;;;8.45;2.47;;;12.90;99.90;;;;;;4956521;28;20137;-77
2022/06/07 06:57:04;;;;;;;7.63;1.90;;;12.90;99.90;;;;;;4979107;28;20046;-77
2022/06/07 06:59:31;;;;;;;8.48;1.70;;;12.90;99.90;;;;;;4964856;28;20049;-76
2022/06/07 07:01:57;;;;;;;7.80;2.28;;;12.90;99.90;;;;;;4962607;28;20054;-77
2022/06/07 07:04:24;;;;;;;7.53;1.70;;;12.90;99.90;;;;;;4964283;28;20576;-77
2022/06/07 07:06:50;;;;;;;8.07;1.98;;;12.90;99.90;;;;;;4967966;28;20038;-78
2022/06/07 07:09:19;;;;;;;13.25;2.13;;;12.90;99.90;;;;;;4985362;28;20051;-77
2022/06/07 07:11:47;;;;;;;6.03;1.73;;;12.90;99.90;;;;;;4981588;28;20447;-77
2022/06/07 07:14:14;;;;;;;7.20;1.73;;;12.80;99.90;;;;;;4983233;28;20046;-77
2022/06/07 07:16:47;;;;;;;6.90;1.90;;;12.90;99.90;;;;;;4986319;28;20054;-78
2022/06/07 07:19:14;;;;;;;10.32;1.95;;;12.90;99.90;;;;;;4984228;28;20089;-76
2022/06/07 07:21:43;;;;;;;6.85;1.65;;;13.00;99.90;;;;;;4949587;28;20077;-76
2022/06/07 07:24:13;;;;;;;10.55;1.75;;;13.10;99.90;;;;;;4978283;28;20034;-76
2022/06/07 07:26:43;;;;;;;7.70;1.80;;;13.20;99.90;;;;;;4949657;28;20739;-76
2022/06/07 07:29:11;;;;;;;6.97;2.08;;;13.20;99.90;;;;;;4945114;28;20061;-75
2022/06/07 07:31:37;;;;;;;6.85;1.60;;;13.20;99.90;;;;;;4969149;28;20053;-76
2022/06/07 07:34:07;;;;;;;11.32;2.25;;;13.20;99.90;;;;;;4982922;28;20053;-75
2022/06/07 07:36:33;;;;;;;7.85;1.63;;;13.20;99.90;;;;;;4985154;28;20050;-75
2022/06/07 07:38:59;;;;;;;9.27;1.90;;;13.20;99.90;;;;;;4969096;28;20051;-76
2022/06/07 07:41:31;;;;;;;10.45;1.77;;;13.20;99.90;;;;;;4947488;28;20041;-75
2022/06/07 07:44:00;;;;;;;9.30;2.15;;;13.30;99.90;;;;;;4985132;28;20542;-75
2022/06/07 07:46:29;;;;;;;6.68;1.70;;;13.40;99.90;;;;;;4967346;28;20185;-76
2022/06/07 07:48:55;;;;;;;7.15;1.75;;;13.40;99.90;;;;;;4986980;28;20614;-76
2022/06/07 07:51:29;;;;;;;6.18;1.42;;;13.40;99.90;;;;;;4982021;28;20130;-76
2022/06/07 07:53:57;;;;;;;10.77;1.70;;;13.50;99.90;;;;;;4969825;28;20053;-80
2022/06/07 07:56:23;;;;;;;7.20;1.60;;;13.50;99.90;;;;;;4968666;28;20856;-78
2022/06/07 07:58:50;;;;;;;6.70;1.70;;;13.50;99.90;;;;;;4964891;28;20432;-77
2022/06/07 08:01:18;;;;;;;7.25;1.70;;;13.50;99.90;;;;;;4945878;28;20042;-78
2022/06/07 08:03:44;;;;;;;9.63;1.98;;;13.50;99.90;;;;;;4967163;28;20113;-80
2022/06/07 08:06:17;;;;;;;8.50;1.50;;;13.50;99.90;;;;;;4926855;28;20093;-83
2022/06/07 08:08:43;;;;;;;6.95;2.03;;;13.50;99.90;;;;;;4967797;28;20100;-78
2022/06/07 08:11:10;;;;;;;9.10;2.05;;;13.40;99.90;;;;;;4964606;28;20042;-78
2022/06/07 08:13:36;;;;;;;7.32;2.13;;;13.40;99.90;;;;;;4952280;28;21745;-77
2022/06/07 08:16:04;;;;;;;9.50;2.15;;;13.40;99.90;;;;;;4964525;28;20551;-77
2022/06/07 08:18:30;;;;;;;6.70;1.75;;;13.30;99.90;;;;;;4983420;28;20587;-78
2022/06/07 08:21:02;;;;;;;8.60;1.90;;;13.30;99.90;;;;;;4959369;28;20046;-78
2022/06/07 08:23:28;;;;;;;9.18;2.03;;;13.20;99.90;;;;;;4963559;28;20137;-77
2022/06/07 08:25:58;;;;;;;8.25;2.22;;;13.20;99.90;;;;;;4969230;28;20049;-79
2022/06/07 08:28:24;;;;;;;7.97;2.33;;;13.30;99.90;;;;;;4964986;28;20093;-80
2022/06/07 08:30:51;;;;;;;8.05;2.28;;;13.40;99.90;;;;;;4943320;28;20050;-81
2022/06/07 08:39:03;;;;;;;6.38;1.70;;;13.80;99.90;;;;;;4968547;28;20046;-81
2022/06/07 08:41:37;;;;;;;7.00;2.00;;;13.80;99.90;;;;;;4965241;28;20153;-78
2022/06/07 08:44:29;;;;;;;11.93;2.20;;;13.90;99.90;;;;;;4964701;28;20104;-78
2022/06/07 08:47:04;;;;;;;7.68;1.75;;;14.00;99.90;;;;;;4943146;28;20058;-78
2022/06/07 08:49:30;;;;;;;9.98;2.00;;;14.00;99.90;;;;;;4967455;28;20062;-78
2022/06/07 08:52:08;;;;;;;8.23;1.83;;;14.00;99.90;;;;;;4983469;28;20606;-77
2022/06/07 08:54:37;;;;;;;10.68;2.15;;;14.10;99.90;;;;;;4982231;28;20045;-76
2022/06/07 08:57:29;;;;;;;6.90;1.80;;;14.10;99.90;;;;;;4981432;28;20046;-81
2022/06/07 09:00:05;;;;;;;10.35;2.22;;;14.00;99.90;;;;;;4964354;28;20797;-82
2022/06/07 09:02:46;;;;;;;;;;;13.60;99.90;;;;;;4977442;28;20058;-81
2022/06/07 09:05:15;;;;;;;6.57;1.88;;;14.10;99.90;;;;;;4978138;28;20406;-76
2022/06/07 09:07:42;;;;;;;7.10;1.50;;;14.10;99.90;;;;;;4941922;28;20051;-78
2022/06/07 09:13:19;;;;;;;7.78;1.90;;;14.10;99.90;;;;;;4947618;28;20169;-77
2022/06/07 09:15:51;;;;;;;8.02;1.70;;;14.10;99.90;;;;;;4966445;28;20114;-77
2022/06/07 09:18:19;;;;;;;7.50;1.63;;;14.00;99.90;;;;;;4947322;28;20058;-76
2022/06/07 09:20:48;;;;;;;7.55;1.63;;;14.00;99.90;;;;;;4941185;28;20051;-77
2022/06/07 09:23:40;;;;;;;5.80;2.08;;;14.00;99.90;;;;;;4941618;28;20051;-77
2022/06/07 09:26:24;;;;;;;7.32;2.05;;;14.00;99.90;;;;;;4960727;28;20059;-78
2022/06/07 09:29:06;;;;;;;8.40;1.85;;;14.00;99.90;;;;;;4936240;28;20050;-76
2022/06/07 09:31:36;;;;;;;8.70;2.03;;;14.00;99.90;;;;;;4937492;28;20039;-78
2022/06/07 09:34:07;;;;;;;7.82;1.80;;;14.00;99.90;;;;;;4941921;28;20051;-76
2022/06/07 09:36:38;;;;;;;4.93;1.38;;;14.10;99.90;;;;;;4948910;28;20127;-77
2022/06/07 09:39:31;;;;;;;2.50;1.00;;;14.20;99.90;;;;;;4931489;28;20074;-77
2022/06/07 09:42:24;;;;;;;4.05;1.20;;;14.30;99.90;;;;;;4945244;28;20093;-78
2022/06/07 09:45:08;;;;;;;5.15;1.40;;;14.30;99.90;;;;;;4946140;28;20058;-77
2022/06/07 09:47:33;;;;;;;4.22;1.13;;;14.30;99.90;;;;;;4951783;28;20047;-82
2022/06/07 09:50:18;;;;;;;10.45;1.58;;;14.40;99.90;;;;;;4929573;28;20046;-78
2022/06/07 09:52:46;;;;;;;4.85;1.00;;;14.50;99.90;;;;;;4945348;28;20043;-78
2022/06/07 09:55:24;;;;;;;4.85;1.25;;;14.50;99.90;;;;;;4928156;28;20043;-79
2022/06/07 09:57:50;;;;;;;5.63;1.40;;;14.80;99.90;;;;;;4943470;28;20056;-79
2022/06/07 10:00:30;;;;;;;5.05;1.38;;;15.10;99.90;;;;;;4946236;28;20930;-79
2022/06/07 10:03:00;;;;;;;5.07;1.45;;;15.20;99.90;;;;;;4958225;28;20110;-79
2022/06/07 10:06:09;;;;;;;5.40;1.42;;;15.50;99.90;;;;;;4963961;28;20113;-79
2022/06/07 10:09:24;;;;;;;3.72;1.33;;;15.80;99.90;;;;;;4963619;28;20046;-78
2022/06/07 10:12:00;;;;;;;5.03;1.40;;;16.10;99.90;;;;;;4936998;28;20134;-79
2022/06/07 10:14:55;;;;;;;6.57;1.63;;;16.30;99.90;;;;;;4944945;28;20142;-79
2022/06/07 10:17:24;;;;;;;4.28;1.45;;;16.30;99.90;;;;;;4930972;28;20047;-79
2022/06/07 10:20:07;;;;;;;5.43;1.80;;;16.20;99.90;;;;;;4948091;28;20050;-78
2022/06/07 10:22:43;;;;;;;6.75;1.75;;;16.20;99.90;;;;;;4945066;28;20575;-82
2022/06/07 10:25:24;;;;;;;6.57;1.83;;;16.10;99.90;;;;;;4942458;28;20047;-78
2022/06/07 10:28:17;;;;;;;5.15;1.40;;;16.10;99.90;;;;;;4959994;28;20043;-80
2022/06/07 10:30:47;;;;;;;3.45;1.10;;;16.10;99.90;;;;;;4960086;28;20559;-78
2022/06/07 10:33:44;;;;;;;4.00;1.08;;;16.20;99.90;;;;;;4946144;28;20049;-80
2022/06/07 10:36:28;;;;;;;;;;;16.10;99.90;;;;;;4943283;28;20057;-78
2022/06/07 10:39:12;;;;;;;5.10;1.48;;;16.20;99.90;;;;;;4948644;28;20005;-78
2022/06/07 10:41:44;;;;;;;3.58;1.30;;;16.50;99.90;;;;;;4950825;28;20049;-79
2022/06/07 10:44:26;;;;;;;6.82;1.50;;;16.70;99.90;;;;;;4967733;28;20043;-79
2022/06/07 10:46:52;;;;;;;5.93;1.55;;;17.00;99.90;;;;;;4938454;28;20058;-79
2022/06/07 10:49:35;;;;;;;5.97;1.40;;;17.30;99.90;;;;;;4962332;28;20043;-80
2022/06/07 10:52:24;;;;;;;4.05;1.23;;;17.30;99.90;;;;;;4952822;28;20046;-79
2022/06/07 10:54:54;;;;;;;5.65;1.20;;;17.40;99.90;;;;;;4946694;28;20053;-79
2022/06/07 10:57:43;;;;;;;6.20;1.35;;;17.40;99.90;;;;;;4948714;28;20705;-77
2022/06/07 11:00:30;;;;;;;8.05;1.40;;;17.30;99.90;;;;;;4916016;28;20488;-78
2022/06/07 11:03:01;;;;;;;4.22;1.55;;;17.50;99.90;;;;;;4960130;28;20054;-78
2022/06/07 11:11:10;;;;;;;4.40;1.23;;;18.20;99.90;;;;;;4971993;28;20046;-78
2022/06/07 11:14:09;;;;;;;6.05;1.30;;;18.20;99.90;;;;;;4967751;28;20035;-79
2022/06/07 11:16:49;;;;;;;3.42;1.17;;;18.60;99.90;;;;;;4967597;28;20057;-78
2022/06/07 11:19:15;;;;;;;2.60;0.90;;;18.70;99.90;;;;;;4986918;28;20054;-79
2022/06/07 11:21:47;;;;;;;2.15;0.70;;;18.90;99.90;;;;;;4954446;28;20046;-78
2022/06/07 11:24:18;;;;;;;4.75;1.00;;;18.80;99.90;;;;;;4969257;28;20054;-78
2022/06/07 11:26:52;;;;;;;3.25;0.90;;;18.50;99.90;;;;;;4967320;28;20046;-79
2022/06/07 11:29:25;;;;;;;5.30;1.50;;;18.00;99.90;;;;;;4968401;28;20126;-79
2022/06/07 11:31:51;;;;;;;3.72;1.00;;;17.70;99.90;;;;;;4965018;28;20162;-78
2022/06/07 11:34:23;;;;;;;3.95;1.40;;;17.80;99.90;;;;;;4953976;28;20042;-79
2022/06/07 11:37:00;;;;;;;4.95;1.25;;;17.90;99.90;;;;;;4986810;28;20109;-78
2022/06/07 11:39:28;;;;;;;6.07;1.75;;;18.10;99.90;;;;;;4963861;28;20050;-78
2022/06/07 11:42:11;;;;;;;5.85;1.45;;;18.40;99.90;;;;;;4948921;28;20132;-78
2022/06/07 11:44:43;;;;;;;5.13;1.30;;;18.60;99.90;;;;;;4971358;28;20834;-77
2022/06/07 11:47:12;;;;;;;6.10;1.60;;;18.60;99.90;;;;;;4966913;28;20045;-79
2022/06/07 11:49:57;;;;;;;5.68;1.48;;;18.40;99.90;;;;;;4954092;28;20058;-77
2022/06/07 11:52:26;;;;;;;4.13;1.63;;;18.30;99.90;;;;;;4964014;28;20125;-76
2022/06/07 11:55:18;;;;;;;6.57;1.80;;;18.10;99.90;;;;;;4985704;28;20054;-77
2022/06/07 11:57:54;;;;;;;5.95;1.63;;;18.00;99.90;;;;;;4967047;28;20108;-77
2022/06/07 12:00:19;;;;;;;6.30;1.52;;;18.10;99.90;;;;;;4963865;28;20047;-77
2022/06/07 12:02:57;;;;;;;4.93;1.48;;;18.20;99.90;;;;;;4940995;28;20061;-77
2022/06/07 12:05:28;;;;;;;6.97;1.55;;;18.50;99.90;;;;;;4933722;28;20066;-78
2022/06/07 12:08:19;;;;;;;5.20;1.52;;;18.50;99.90;;;;;;4948342;28;20137;-77
2022/06/07 12:11:03;;;;;;;4.25;1.30;;;18.50;99.90;;;;;;4964833;28;20106;-76
2022/06/07 12:13:50;;;;;;;4.82;1.30;;;18.20;99.90;;;;;;4948262;28;20054;-77
2022/06/07 12:16:30;;;;;;;6.20;1.30;;;18.00;99.90;;;;;;4945235;28;20046;-77
2022/06/07 12:18:58;;;;;;;5.78;1.80;;;18.00;99.90;;;;;;4963911;28;20059;-77
2022/06/07 12:21:25;;;;;;;5.15;1.30;;;17.80;99.90;;;;;;4947296;28;20054;-77
2022/06/07 12:24:09;;;;;;;4.35;1.20;;;17.80;99.90;;;;;;4963283;28;20130;-76
2022/06/07 12:26:34;;;;;;;6.25;1.25;;;17.80;99.90;;;;;;4949835;28;20102;-76
2022/06/07 12:29:20;;;;;;;3.67;1.27;;;17.50;99.90;;;;;;4932149;28;20403;-77
2022/06/07 12:31:53;;;;;;;3.95;1.10;;;17.30;99.90;;;;;;4951019;28;20046;-77
2022/06/07 12:34:31;;;;;;;4.07;1.00;;;17.30;99.90;;;;;;4949599;28;20054;-78
2022/06/07 12:37:08;;;;;;;5.30;1.13;;;17.40;99.90;;;;;;4946323;28;20173;-77
2022/06/07 12:39:43;;;;;;;3.92;1.00;;;17.40;99.90;;;;;;4963818;28;20516;-77
2022/06/07 12:42:16;;;;;;;3.65;1.20;;;17.60;99.90;;;;;;4936204;28;20519;-77
2022/06/07 12:44:52;;;;;;;4.13;1.40;;;17.90;99.90;;;;;;4950532;28;20050;-77
2022/06/07 12:47:25;;;;;;;;;;;17.90;99.90;;;;;;4968434;28;20131;-77
2022/06/07 12:49:51;;;;;;;4.80;1.25;;;18.20;99.90;;;;;;4934199;28;20032;-78
2022/06/07 12:52:26;;;;;;;4.57;1.25;;;18.10;99.90;;;;;;4951716;28;20162;-78
2022/06/07 12:55:09;;;;;;;4.75;1.17;;;18.20;99.90;;;;;;4951113;28;20941;-77
2022/06/07 12:57:50;;;;;;;5.28;1.38;;;18.20;99.90;;;;;;4950897;28;20105;-77
2022/06/07 13:00:18;;;;;;;7.13;1.42;;;18.10;99.90;;;;;;4950040;28;20054;-77
2022/06/07 13:02:48;;;;;;;5.65;1.52;;;18.10;99.90;;;;;;4975395;28;20129;-77
2022/06/07 13:05:29;;;;;;;4.57;1.20;;;18.10;99.90;;;;;;4951609;28;20054;-76
2022/06/07 13:07:58;;;;;;;5.57;1.20;;;18.00;99.90;;;;;;4928725;28;20055;-77
2022/06/07 13:10:31;;;;;;;3.95;1.02;;;18.10;99.90;;;;;;4974966;28;20113;-77
2022/06/07 13:12:59;;;;;;;3.53;1.15;;;18.00;99.90;;;;;;4952090;28;20054;-77
2022/06/07 13:15:50;;;;;;;6.22;1.83;;;18.00;99.90;;;;;;4934956;28;21252;-78
2022/06/07 13:18:33;;;;;;;4.38;1.30;;;18.00;99.90;;;;;;4949719;28;20658;-77
2022/06/07 13:21:19;;;;;;;4.68;1.45;;;17.60;99.90;;;;;;4949265;28;20122;-77
2022/06/07 13:23:45;;;;;;;;;;;17.70;99.90;;;;;;4983326;28;20053;-79
2022/06/07 13:26:25;;;;;;;3.78;1.20;;;18.00;99.90;;;;;;4953413;28;19926;-78
2022/06/07 13:29:12;;;;;;;3.78;1.15;;;18.20;99.90;;;;;;4947031;28;20049;-80
2022/06/07 13:31:41;;;;;;;3.70;1.33;;;18.70;99.90;;;;;;4964194;28;20137;-80